Time;durP1;ratioP1;P1;durP2;ratioP2;P2;SDS_P1;SDS_P2;PMS_P1;PMS_P2;Temp;Humidity;BMP_temperature;BMP_pressure;BME280_temperature;BME280_humidity;BME280_pressure;Samples;Min_cycle;Max_cycle;Signal;HPM_P1;HPM_P2
2023/03/06 00:01:25;;;;;;;5.05;2.45;;;;;;;2.71;100.00;99685.91;4993161;28;20117;-73
2023/03/06 00:03:51;;;;;;;5.97;2.60;;;;;;;2.63;100.00;99681.47;4994587;28;20153;-74
2023/03/06 00:06:16;;;;;;;6.85;2.17;;;;;;;2.63;100.00;99680.59;4994311;28;20129;-73
2023/03/06 00:08:41;;;;;;;3.30;1.80;;;;;;;2.69;100.00;99682.41;4994230;28;20030;-73
2023/03/06 00:11:07;;;;;;;4.78;2.10;;;;;;;2.68;100.00;99681.53;4994272;28;20081;-73
2023/03/06 00:13:33;;;;;;;5.40;2.72;;;;;;;2.66;100.00;99670.22;4994439;28;20038;-73
2023/03/06 00:16:03;;;;;;;5.63;2.47;;;;;;;2.69;100.00;99674.59;4992302;28;20053;-74
2023/03/06 00:18:29;;;;;;;5.05;2.17;;;;;;;2.63;100.00;99675.41;4993242;28;20628;-74
2023/03/06 00:20:54;;;;;;;4.85;2.35;;;;;;;2.68;100.00;99672.84;4990803;28;20116;-74
2023/03/06 00:23:19;;;;;;;5.85;2.70;;;;;;;2.64;100.00;99666.72;4969120;28;20088;-74
2023/03/06 00:25:45;;;;;;;4.70;2.40;;;;;;;2.67;100.00;99665.88;4994112;28;20054;-74
2023/03/06 00:28:11;;;;;;;4.88;2.42;;;;;;;2.66;100.00;99667.63;4994076;28;20038;-74
2023/03/06 00:30:36;;;;;;;7.28;2.97;;;;;;;2.64;100.00;99666.72;4976352;28;20041;-74
2023/03/06 00:33:02;;;;;;;5.10;2.60;;;;;;;2.67;100.00;99663.28;4994055;28;20049;-74
2023/03/06 00:35:29;;;;;;;6.20;2.42;;;;;;;2.72;100.00;99669.41;4984137;28;20034;-74
2023/03/06 00:37:54;;;;;;;7.35;2.75;;;;;;;2.69;100.00;99658.97;4993594;28;20046;-74
2023/03/06 00:40:20;;;;;;;5.72;2.67;;;;;;;2.74;100.00;99662.50;4993580;28;20074;-74
2023/03/06 00:42:46;;;;;;;6.35;2.70;;;;;;;2.77;100.00;99655.56;4993793;28;20042;-74
2023/03/06 00:45:12;;;;;;;4.40;2.50;;;;;;;2.83;100.00;99662.63;4993786;28;20100;-73
2023/03/06 00:47:38;;;;;;;6.63;2.67;;;;;;;2.85;100.00;99656.53;4983852;28;20488;-74
2023/03/06 00:50:04;;;;;;;6.40;2.85;;;;;;;2.84;100.00;99644.38;4984378;28;20070;-74
2023/03/06 00:52:30;;;;;;;5.43;2.70;;;;;;;2.88;100.00;99644.41;4976199;28;20038;-74
2023/03/06 00:54:55;;;;;;;4.95;3.10;;;;;;;2.84;100.00;99648.72;4976047;28;20117;-75
2023/03/06 00:57:20;;;;;;;6.25;2.75;;;;;;;2.85;100.00;99632.22;4993386;28;20038;-73
2023/03/06 00:59:46;;;;;;;7.13;3.40;;;;;;;2.83;100.00;99639.16;4993155;28;20054;-74
2023/03/06 01:02:11;;;;;;;6.25;3.13;;;;;;;2.84;100.00;99640.91;4993477;28;20041;-73
2023/03/06 01:04:37;;;;;;;6.38;3.05;;;;;;;2.80;100.00;99633.88;4993287;28;20042;-74
2023/03/06 01:07:02;;;;;;;8.13;3.38;;;;;;;2.76;100.00;99630.38;4975855;28;20039;-74
2023/03/06 01:09:29;;;;;;;5.40;2.95;;;;;;;2.77;100.00;99626.91;4993284;28;20037;-74
2023/03/06 01:11:55;;;;;;;8.60;3.58;;;;;;;2.74;100.00;99623.41;4992807;28;20038;-73
2023/03/06 01:14:20;;;;;;;6.75;3.75;;;;;;;2.74;100.00;99620.81;4984114;28;20034;-73
2023/03/06 01:16:46;;;;;;;7.07;3.40;;;;;;;2.74;100.00;99621.66;4975737;28;20046;-74
2023/03/06 01:19:11;;;;;;;7.40;3.90;;;;;;;2.80;100.00;99616.53;4992617;28;20046;-74
2023/03/06 01:21:37;;;;;;;5.28;3.20;;;;;;;2.77;100.00;99618.22;4993043;28;20416;-74
2023/03/06 01:24:03;;;;;;;8.40;3.72;;;;;;;2.75;100.00;99613.03;4989427;28;20053;-74
2023/03/06 01:26:28;;;;;;;7.18;3.40;;;;;;;2.75;100.00;99606.91;4989127;28;20034;-74
2023/03/06 01:28:56;;;;;;;7.85;3.60;;;;;;;2.74;100.00;99606.03;4992483;28;20112;-73
2023/03/06 01:31:22;;;;;;;7.80;4.35;;;;;;;2.73;100.00;99603.44;4992890;28;20104;-74
2023/03/06 01:33:47;;;;;;;8.38;4.50;;;;;;;2.71;100.00;99611.22;4992724;28;20042;-73
2023/03/06 01:36:12;;;;;;;7.90;4.00;;;;;;;2.72;100.00;99609.47;4975314;28;20038;-73
2023/03/06 01:38:38;;;;;;;7.63;4.18;;;;;;;2.75;100.00;99613.03;4992569;28;20042;-73
2023/03/06 01:41:04;;;;;;;5.82;3.30;;;;;;;2.80;100.00;99602.63;4975081;28;20030;-74
2023/03/06 01:43:35;;;;;;;9.20;4.22;;;;;;;2.82;100.00;99611.34;4975229;28;20076;-73
2023/03/06 01:46:24;;;;;;;7.25;4.50;;;;;;;2.83;100.00;99611.34;4992504;28;20521;-74
2023/03/06 01:48:54;;;;;;;8.43;4.07;;;;;;;2.77;100.00;99610.41;4988153;28;20448;-73
2023/03/06 01:51:20;;;;;;;7.55;4.70;;;;;;;2.81;100.00;99604.38;4992545;28;20464;-73
2023/03/06 01:53:49;;;;;;;37.45;34.85;;;;;;;2.72;100.00;99607.75;4992516;28;20512;-73
2023/03/06 01:56:14;;;;;;;8.15;4.10;;;;;;;2.73;100.00;99606.03;4975329;28;20397;-74
2023/03/06 01:58:42;;;;;;;10.60;4.80;;;;;;;2.77;100.00;99599.97;4983128;28;20038;-74
2023/03/06 02:01:10;;;;;;;8.20;4.20;;;;;;;2.77;100.00;99597.38;4975065;28;20676;-74
2023/03/06 02:03:36;;;;;;;8.00;4.25;;;;;;;2.73;100.00;99593.00;4992372;28;20105;-73
2023/03/06 02:06:05;;;;;;;7.90;4.28;;;;;;;2.67;100.00;99593.78;4968514;28;20382;-73
2023/03/06 02:08:30;;;;;;;6.88;4.03;;;;;;;2.65;100.00;99595.53;4976681;28;20084;-73
2023/03/06 02:11:11;;;;;;;8.35;3.95;;;;;;;2.70;100.00;99590.34;4991907;28;20053;-74
2023/03/06 02:13:37;;;;;;;7.50;4.28;;;;;;;2.62;100.00;99580.75;4992330;28;20559;-74
2023/03/06 02:16:03;;;;;;;7.13;4.47;;;;;;;2.61;100.00;99580.72;4978254;28;20041;-74
2023/03/06 02:18:29;;;;;;;9.80;5.00;;;;;;;2.60;100.00;99587.66;4991938;28;20401;-73
2023/03/06 02:20:59;;;;;;;7.15;4.35;;;;;;;2.61;100.00;99580.72;4979629;28;20041;-74
2023/03/06 02:24:09;;;;;;;7.30;4.57;;;;;;;2.64;100.00;99579.00;4974332;28;20043;-73
2023/03/06 02:26:36;;;;;;;9.50;4.50;;;;;;;2.60;100.00;99577.25;4948810;28;20051;-73
2023/03/06 02:29:02;;;;;;;8.15;4.72;;;;;;;2.51;100.00;99578.88;4991587;28;20363;-73
2023/03/06 02:31:31;;;;;;;8.93;4.47;;;;;;;2.50;100.00;99580.59;4974464;28;20427;-74
2023/03/06 02:34:03;;;;;;;7.70;4.07;;;;;;;2.58;100.00;99565.94;4974461;28;20065;-74
2023/03/06 02:36:30;;;;;;;7.40;3.95;;;;;;;2.62;100.00;99567.72;4988009;28;20038;-74
2023/03/06 02:38:57;;;;;;;6.95;4.57;;;;;;;2.61;100.00;99571.16;4974019;28;20142;-74
2023/03/06 02:41:23;;;;;;;9.95;4.97;;;;;;;2.60;100.00;99571.16;4991854;28;20470;-74
2023/03/06 02:43:50;;;;;;;8.43;4.78;;;;;;;2.62;100.00;99570.31;4974312;28;20041;-74
2023/03/06 02:46:15;;;;;;;7.60;4.30;;;;;;;2.57;100.00;99571.13;4971626;28;20035;-74
2023/03/06 02:48:41;;;;;;;8.35;4.63;;;;;;;2.53;100.00;99561.53;4973785;28;20551;-74
2023/03/06 02:51:06;;;;;;;11.23;4.70;;;;;;;2.50;100.00;99553.69;4991593;28;20515;-74
2023/03/06 02:53:31;;;;;;;9.10;4.80;;;;;;;2.46;100.00;99552.75;4991714;28;20484;-74
2023/03/06 02:55:58;;;;;;;9.18;4.63;;;;;;;2.47;100.00;99549.31;4991697;28;20031;-74
2023/03/06 02:58:23;;;;;;;11.02;5.85;;;;;;;2.38;100.00;99554.41;4981848;28;20037;-73
2023/03/06 03:00:49;;;;;;;9.55;5.45;;;;;;;2.39;100.00;99553.56;4973942;28;20482;-73
2023/03/06 03:03:15;;;;;;;9.25;4.47;;;;;;;2.37;100.00;99550.06;4974021;28;20034;-73
2023/03/06 03:05:41;;;;;;;7.60;4.55;;;;;;;2.39;100.00;99548.38;4991625;28;20042;-73
2023/03/06 03:08:17;;;;;;;9.38;5.05;;;;;;;2.30;100.00;99554.31;4989887;28;20031;-73
2023/03/06 03:10:43;;;;;;;9.93;5.30;;;;;;;2.32;100.00;99546.53;4968954;28;20034;-73
2023/03/06 03:13:08;;;;;;;10.70;5.43;;;;;;;2.27;100.00;99545.63;4986710;28;20035;-73
2023/03/06 03:15:35;;;;;;;10.25;5.57;;;;;;;2.30;100.00;99548.25;4986565;28;20034;-73
2023/03/06 03:18:01;;;;;;;13.82;5.65;;;;;;;2.26;100.00;99549.94;4973843;28;20408;-73
2023/03/06 03:20:27;;;;;;;11.13;5.47;;;;;;;2.25;100.00;99542.09;4973712;28;20081;-74
2023/03/06 03:22:54;;;;;;;9.18;5.32;;;;;;;2.28;100.00;99542.16;4973999;28;20053;-74
2023/03/06 03:25:20;;;;;;;10.48;5.00;;;;;;;2.22;100.00;99542.94;4991542;28;20035;-73
2023/03/06 03:27:46;;;;;;;10.80;5.43;;;;;;;2.26;100.00;99539.53;4973817;28;20035;-73
2023/03/06 03:30:12;;;;;;;10.00;5.85;;;;;;;2.28;100.00;99531.72;4973411;28;20496;-74
2023/03/06 03:32:38;;;;;;;9.60;5.10;;;;;;;2.26;100.00;99523.91;4973797;28;20109;-73
2023/03/06 03:35:05;;;;;;;9.80;4.80;;;;;;;2.21;100.00;99525.59;4991689;28;20611;-73
2023/03/06 03:37:31;;;;;;;8.93;4.95;;;;;;;2.18;100.00;99516.03;4984782;28;20493;-73
2023/03/06 03:39:58;;;;;;;8.82;4.40;;;;;;;2.19;100.00;99511.69;4994573;28;20034;-73
2023/03/06 03:42:23;;;;;;;10.27;4.85;;;;;;;2.17;100.00;99514.28;4986640;28;20034;-73
2023/03/06 03:44:49;;;;;;;9.23;5.25;;;;;;;2.12;100.00;99512.47;4988021;28;20061;-73
2023/03/06 03:47:15;;;;;;;8.20;4.78;;;;;;;2.06;100.00;99513.25;4976951;28;20038;-73
2023/03/06 03:49:41;;;;;;;9.43;5.30;;;;;;;2.03;100.00;99515.84;4977018;28;20069;-73
2023/03/06 03:52:06;;;;;;;11.60;5.88;;;;;;;2.02;100.00;99508.91;4961212;28;20950;-74
2023/03/06 03:54:35;;;;;;;9.80;5.07;;;;;;;1.98;100.00;99507.09;4977158;28;20038;-74
2023/03/06 03:57:00;;;;;;;9.43;5.35;;;;;;;1.95;100.00;99504.47;4977183;28;20045;-73
2023/03/06 03:59:30;;;;;;;11.27;5.15;;;;;;;1.90;100.00;99496.59;4985258;28;20448;-74
2023/03/06 04:02:09;;;;;;;10.35;5.05;;;;;;;1.91;100.00;99500.97;4991252;28;20069;-74
2023/03/06 04:04:42;;;;;;;9.48;5.22;;;;;;;1.88;100.00;99500.91;4994877;28;20045;-74
2023/03/06 04:07:09;;;;;;;9.90;5.03;;;;;;;1.92;100.00;99491.44;4976893;28;20042;-74
2023/03/06 04:09:35;;;;;;;148.07;138.65;;;;;;;1.92;100.00;99488.81;4976572;28;20117;-74
2023/03/06 04:12:01;;;;;;;9.82;5.32;;;;;;;1.95;100.00;99481.91;4976927;28;20034;-74
2023/03/06 04:14:35;;;;;;;9.95;5.97;;;;;;;1.96;100.00;99483.69;4977967;28;20038;-74
2023/03/06 04:17:02;;;;;;;8.93;5.28;;;;;;;1.92;100.00;99486.22;4970861;28;20124;-73
2023/03/06 04:19:27;;;;;;;12.40;6.10;;;;;;;1.91;100.00;99484.44;4989913;28;20070;-74
2023/03/06 04:21:52;;;;;;;10.68;5.30;;;;;;;1.90;100.00;99473.19;4976674;28;20730;-74
2023/03/06 04:24:18;;;;;;;9.27;5.18;;;;;;;1.90;100.00;99475.78;4976953;28;20038;-74
2023/03/06 04:26:44;;;;;;;9.25;5.72;;;;;;;1.92;100.00;99470.59;4976700;28;20408;-74
2023/03/06 04:29:09;;;;;;;12.23;5.75;;;;;;;1.88;100.00;99480.09;4976297;28;20030;-74
2023/03/06 04:31:35;;;;;;;10.80;5.90;;;;;;;1.79;100.00;99477.38;4993881;28;20045;-74
2023/03/06 04:34:01;;;;;;;11.43;6.55;;;;;;;1.80;100.00;99473.91;4976599;28;20503;-74
2023/03/06 04:36:33;;;;;;;11.10;5.40;;;;;;;1.79;100.00;99468.72;4993978;28;20078;-74
2023/03/06 04:39:10;;;;;;;;;;;;;;;1.83;100.00;99476.56;4958245;28;20061;-74
2023/03/06 04:41:35;;;;;;;9.07;5.72;;;;;;;1.77;100.00;99480.81;4993886;28;20043;-74
2023/03/06 04:44:00;;;;;;;11.98;6.13;;;;;;;1.77;100.00;99473.03;4993375;28;20038;-74
2023/03/06 04:46:25;;;;;;;10.00;6.25;;;;;;;1.75;100.00;99481.66;4991508;28;20046;-74
2023/03/06 04:48:51;;;;;;;10.93;5.50;;;;;;;1.71;100.00;99479.91;4992722;28;20092;-74
2023/03/06 04:51:16;;;;;;;9.65;5.53;;;;;;;1.72;100.00;99473.81;4993577;28;20050;-75
2023/03/06 04:53:41;;;;;;;12.98;5.82;;;;;;;1.71;100.00;99477.28;4992780;28;20069;-74
2023/03/06 04:56:07;;;;;;;13.07;6.35;;;;;;;1.71;100.00;99473.81;4987155;28;20042;-74
2023/03/06 04:58:32;;;;;;;11.13;6.78;;;;;;;1.72;100.00;99473.81;4993174;28;20121;-75
2023/03/06 05:00:58;;;;;;;12.10;6.65;;;;;;;1.75;100.00;99473.00;4992759;28;20037;-74
2023/03/06 05:03:23;;;;;;;10.45;6.30;;;;;;;1.72;100.00;99473.81;4993484;28;20042;-74
2023/03/06 05:05:48;;;;;;;11.50;5.95;;;;;;;1.68;100.00;99474.66;4993350;28;20042;-74
2023/03/06 05:08:16;;;;;;;11.60;6.45;;;;;;;1.74;100.00;99471.25;4993336;28;20030;-74
2023/03/06 05:10:43;;;;;;;11.55;5.20;;;;;;;1.73;100.00;99469.53;4993182;28;20401;-75
2023/03/06 05:13:08;;;;;;;12.50;6.47;;;;;;;1.71;100.00;99466.88;4993190;28;20065;-75
2023/03/06 05:15:33;;;;;;;12.45;6.72;;;;;;;1.70;100.00;99456.44;4993162;28;20066;-74
2023/03/06 05:17:59;;;;;;;18.50;9.30;;;;;;;1.72;100.00;99467.75;4993219;28;20066;-74
2023/03/06 05:20:24;;;;;;;11.02;6.78;;;;;;;1.70;100.00;99459.94;4992855;28;20038;-74
2023/03/06 05:22:50;;;;;;;11.68;6.70;;;;;;;1.69;100.00;99463.38;4992522;28;20030;-75
2023/03/06 05:25:15;;;;;;;13.98;8.05;;;;;;;1.64;100.00;99459.84;4992726;28;20113;-74
2023/03/06 05:27:40;;;;;;;13.40;7.15;;;;;;;1.63;100.00;99458.13;4990786;28;20061;-74
2023/03/06 05:30:06;;;;;;;12.23;7.13;;;;;;;1.63;100.00;99458.13;4992459;28;20129;-75
2023/03/06 05:32:32;;;;;;;10.65;6.43;;;;;;;1.62;100.00;99456.34;4992882;28;20065;-74
2023/03/06 05:34:57;;;;;;;12.80;7.25;;;;;;;1.58;100.00;99462.38;4992786;28;20144;-75
2023/03/06 05:37:23;;;;;;;14.65;6.50;;;;;;;1.56;100.00;99466.69;4992824;28;20129;-75
2023/03/06 05:39:49;;;;;;;12.88;7.72;;;;;;;1.51;100.00;99463.16;4986326;28;20576;-75
2023/03/06 05:42:14;;;;;;;12.25;7.53;;;;;;;1.53;100.00;99462.31;4991593;28;20049;-74
2023/03/06 05:44:40;;;;;;;12.20;7.35;;;;;;;1.53;100.00;99462.31;4991853;28;20050;-75
2023/03/06 05:47:07;;;;;;;11.63;7.00;;;;;;;1.49;100.00;99460.56;4989792;28;20033;-75
2023/03/06 05:49:34;;;;;;;15.80;8.13;;;;;;;1.48;100.00;99463.13;4988205;28;20039;-74
2023/03/06 05:52:02;;;;;;;18.55;9.57;;;;;;;1.51;100.00;99461.41;4992485;28;20034;-75
2023/03/06 05:54:28;;;;;;;18.15;9.65;;;;;;;1.51;100.00;99464.03;4987969;28;20057;-74
2023/03/06 05:56:56;;;;;;;11.88;6.95;;;;;;;1.52;100.00;99464.91;4987139;28;20041;-74
2023/03/06 05:59:21;;;;;;;13.00;7.28;;;;;;;1.47;100.00;99461.38;4969896;28;20034;-74
2023/03/06 06:01:46;;;;;;;15.40;8.20;;;;;;;1.43;100.00;99454.38;4986196;28;20581;-75
2023/03/06 06:04:12;;;;;;;12.93;6.93;;;;;;;1.43;100.00;99459.59;4990001;28;20046;-74
2023/03/06 06:06:37;;;;;;;15.07;8.00;;;;;;;1.42;100.00;99457.84;4992164;28;20042;-74
2023/03/06 06:09:03;;;;;;;13.38;6.82;;;;;;;1.43;100.00;99462.19;4991737;28;20041;-74
2023/03/06 06:11:28;;;;;;;13.25;7.05;;;;;;;1.41;100.00;99461.28;4987647;28;20034;-74
2023/03/06 06:13:54;;;;;;;12.73;6.55;;;;;;;1.44;100.00;99458.72;4992165;28;20039;-74
2023/03/06 06:16:19;;;;;;;14.02;7.68;;;;;;;1.46;100.00;99464.81;4988182;28;20038;-74
2023/03/06 06:18:45;;;;;;;13.18;8.32;;;;;;;1.46;100.00;99463.09;4991581;28;20053;-74
2023/03/06 06:21:13;;;;;;;11.32;6.68;;;;;;;1.46;100.00;99462.22;4991947;28;20046;-74
2023/03/06 06:23:38;;;;;;;13.77;7.82;;;;;;;1.51;100.00;99463.16;4974064;28;20038;-74
2023/03/06 06:26:06;;;;;;;13.23;7.75;;;;;;;1.54;100.00;99452.78;4991403;28;20041;-74
2023/03/06 06:28:32;;;;;;;18.95;9.43;;;;;;;1.58;100.00;99456.31;4992040;28;20409;-74
2023/03/06 06:30:58;;;;;;;16.55;9.38;;;;;;;1.58;100.00;99457.19;4991671;28;20107;-74
2023/03/06 06:33:23;;;;;;;14.90;8.27;;;;;;;1.69;100.00;99454.72;4991818;28;20038;-74
2023/03/06 06:35:50;;;;;;;15.75;8.25;;;;;;;1.83;100.00;99458.34;4991957;28;20045;-74
2023/03/06 06:38:15;;;;;;;14.60;8.15;;;;;;;2.00;100.00;99455.94;4991805;28;20180;-74
2023/03/06 06:40:40;;;;;;;12.38;7.55;;;;;;;2.11;100.00;99456.94;4991463;28;20443;-74
2023/03/06 06:43:06;;;;;;;14.68;8.25;;;;;;;2.24;100.00;99454.47;4991737;28;20042;-74
2023/03/06 06:45:31;;;;;;;16.15;8.85;;;;;;;2.34;100.00;99464.97;4991703;28;20041;-75
2023/03/06 06:47:56;;;;;;;14.20;8.77;;;;;;;2.44;100.00;99455.53;4991401;28;20116;-75
2023/03/06 06:50:22;;;;;;;13.32;7.25;;;;;;;2.49;100.00;99448.66;4991537;28;20539;-75
2023/03/06 06:52:47;;;;;;;14.80;8.02;;;;;;;2.60;100.00;99456.56;4990363;28;20038;-74
2023/03/06 06:55:13;;;;;;;14.05;7.47;;;;;;;2.70;100.00;99460.97;4991418;28;20030;-74
2023/03/06 06:57:40;;;;;;;13.43;8.05;;;;;;;2.66;100.00;99456.59;4991388;28;20121;-74
2023/03/06 07:00:06;;;;;;;0.38;0.38;;;;;;;2.73;100.00;99447.97;4987471;28;20043;-74
2023/03/06 07:02:32;;;;;;;0.30;0.30;;;;;;;2.79;100.00;99458.44;4991383;28;20173;-75
2023/03/06 07:04:57;;;;;;;0.28;0.28;;;;;;;2.83;100.00;99449.78;4991263;28;20160;-74
2023/03/06 07:07:23;;;;;;;0.30;0.30;;;;;;;2.87;100.00;99455.03;4991540;28;20140;-74
2023/03/06 07:09:48;;;;;;;0.28;0.28;;;;;;;2.99;100.00;99449.91;4984636;28;20031;-75
2023/03/06 07:12:14;;;;;;;0.20;0.20;;;;;;;3.07;100.00;99446.47;4995326;28;20517;-75
2023/03/06 07:14:41;;;;;;;0.30;0.30;;;;;;;3.11;99.48;99444.75;4994399;28;20049;-74
2023/03/06 07:17:07;;;;;;;0.30;0.30;;;;;;;3.12;99.68;99448.22;4992254;28;20046;-74
2023/03/06 07:19:32;;;;;;;0.30;0.30;;;;;;;3.16;99.85;99442.19;4994934;28;20092;-75
2023/03/06 07:21:59;;;;;;;0.30;0.30;;;;;;;3.27;99.15;99445.72;4995356;28;20038;-74
2023/03/06 07:24:24;;;;;;;0.30;0.30;;;;;;;3.35;98.45;99440.56;4995118;28;20039;-75
2023/03/06 07:26:50;;;;;;;0.30;0.30;;;;;;;3.28;97.25;99443.13;4995156;28;20411;-74
2023/03/06 07:29:15;;;;;;;0.20;0.20;;;;;;;3.35;97.89;99433.59;4994785;28;20034;-75
2023/03/06 07:31:41;;;;;;;0.30;0.30;;;;;;;3.41;98.23;99438.88;4995164;28;20409;-74
2023/03/06 07:34:06;;;;;;;0.30;0.30;;;;;;;3.36;97.56;99439.72;4995087;28;20409;-75
2023/03/06 07:36:33;;;;;;;0.20;0.20;;;;;;;3.45;97.57;99430.19;4995008;28;20122;-74
2023/03/06 07:38:58;;;;;;;0.20;0.20;;;;;;;3.44;97.15;99435.41;4994270;28;20038;-75
2023/03/06 07:41:23;;;;;;;0.30;0.30;;;;;;;3.53;97.74;99445.00;4994945;28;20489;-75
2023/03/06 07:43:49;;;;;;;0.30;0.30;;;;;;;3.51;99.85;99440.66;4994875;28;20058;-74
2023/03/06 07:46:15;;;;;;;0.20;0.20;;;;;;;3.53;98.40;99434.56;4985026;28;20068;-74
2023/03/06 07:48:41;;;;;;;0.20;0.20;;;;;;;3.56;97.45;99442.41;4994254;28;20058;-74
2023/03/06 07:51:15;;;;;;;0.22;0.22;;;;;;;3.55;97.17;99441.53;4994302;28;20054;-74
2023/03/06 07:53:40;;;;;;;0.30;0.30;;;;;;;3.61;97.26;99441.56;4994001;28;20038;-74
2023/03/06 07:56:07;;;;;;;0.30;0.30;;;;;;;3.77;95.10;99436.41;4994590;28;20457;-74
2023/03/06 07:58:37;;;;;;;0.20;0.20;;;;;;;3.82;95.52;99439.91;4976989;28;20492;-74
2023/03/06 08:01:08;;;;;;;0.30;0.30;;;;;;;3.74;93.62;99429.44;4994319;28;20489;-75
2023/03/06 08:03:33;;;;;;;0.30;0.30;;;;;;;3.81;93.77;99439.03;4994516;28;20516;-75
2023/03/06 08:06:13;;;;;;;0.40;0.40;;;;;;;3.79;93.49;99427.72;4976919;28;20152;-74
2023/03/06 08:08:40;;;;;;;0.30;0.30;;;;;;;3.82;94.00;99429.47;4990163;28;20080;-75
2023/03/06 08:11:07;;;;;;;0.40;0.40;;;;;;;3.88;93.35;99440.81;4994075;28;20051;-74
2023/03/06 08:13:32;;;;;;;0.30;0.30;;;;;;;3.91;93.57;99438.19;4993230;28;20054;-74
2023/03/06 08:15:58;;;;;;;0.32;0.32;;;;;;;4.10;93.98;99436.50;4993883;28;20161;-75
2023/03/06 08:18:24;;;;;;;0.25;0.25;;;;;;;4.31;93.15;99440.91;4989788;28;20497;-74
2023/03/06 08:20:49;;;;;;;0.30;0.30;;;;;;;4.45;92.71;99440.91;4993640;28;20057;-74
2023/03/06 08:23:15;;;;;;;0.30;0.30;;;;;;;4.38;91.73;99442.66;4988374;28;20034;-74
2023/03/06 08:25:40;;;;;;;0.30;0.30;;;;;;;4.26;91.17;99441.78;4994106;28;20030;-74
2023/03/06 08:28:05;;;;;;;0.30;0.30;;;;;;;4.21;91.55;99433.91;4993036;28;20041;-74
2023/03/06 08:30:31;;;;;;;0.30;0.30;;;;;;;4.26;91.70;99439.16;4989440;28;20069;-74
2023/03/06 08:32:56;;;;;;;0.30;0.30;;;;;;;4.28;92.13;99440.03;4992312;28;20038;-74
2023/03/06 08:35:21;;;;;;;0.40;0.40;;;;;;;4.41;91.92;99435.72;4985813;28;20046;-74
2023/03/06 08:37:47;;;;;;;0.30;0.30;;;;;;;4.58;91.34;99439.19;4989576;28;20128;-74
2023/03/06 08:40:12;;;;;;;0.38;0.38;;;;;;;4.67;90.95;99444.44;4993082;28;20070;-75
2023/03/06 08:42:37;;;;;;;0.30;0.30;;;;;;;4.82;89.75;99439.22;4993735;28;20121;-74
2023/03/06 08:45:04;;;;;;;0.47;0.47;;;;;;;4.89;90.50;99439.19;4992767;28;20041;-75
2023/03/06 08:47:29;;;;;;;0.40;0.40;;;;;;;4.91;89.08;99435.72;4973195;28;20062;-74
2023/03/06 08:49:54;;;;;;;0.30;0.30;;;;;;;5.10;88.99;99426.09;4993415;28;20461;-74
2023/03/06 08:52:20;;;;;;;0.40;0.40;;;;;;;5.26;88.84;99435.63;4986883;28;20782;-74
2023/03/06 08:54:45;;;;;;;0.40;0.40;;;;;;;5.41;88.44;99439.09;4985433;28;20054;-75
2023/03/06 08:57:11;;;;;;;0.40;0.40;;;;;;;5.42;86.52;99431.25;4993080;28;20520;-75
2023/03/06 08:59:36;;;;;;;0.40;0.40;;;;;;;5.51;85.97;99434.72;4975327;28;20125;-74
2023/03/06 09:02:02;;;;;;;0.40;0.40;;;;;;;5.40;85.46;99419.94;4993443;28;20444;-75
2023/03/06 09:04:29;;;;;;;0.50;0.50;;;;;;;5.41;85.98;99433.88;4993313;28;20042;-75
2023/03/06 09:06:54;;;;;;;0.45;0.45;;;;;;;5.50;86.63;99433.84;4993575;28;20062;-74
2023/03/06 09:09:19;;;;;;;0.40;0.40;;;;;;;5.60;86.49;99434.69;4991116;28;20046;-74
2023/03/06 09:11:45;;;;;;;0.40;0.40;;;;;;;5.42;85.43;99435.59;4986122;28;20034;-75
2023/03/06 09:14:10;;;;;;;0.40;0.40;;;;;;;5.33;86.29;99441.75;4972453;28;20113;-74
2023/03/06 09:16:35;;;;;;;0.38;0.38;;;;;;;5.32;86.38;99440.00;4993034;28;20045;-74
2023/03/06 09:19:01;;;;;;;0.50;0.50;;;;;;;5.26;86.83;99438.25;4992643;28;20045;-75
2023/03/06 09:21:27;;;;;;;0.50;0.50;;;;;;;5.41;87.69;99449.56;4993229;28;20076;-74
2023/03/06 09:23:52;;;;;;;0.40;0.40;;;;;;;5.36;86.80;99441.72;4993075;28;20449;-75
2023/03/06 09:26:18;;;;;;;0.40;0.40;;;;;;;5.24;87.28;99445.25;4992982;28;20038;-75
2023/03/06 09:28:44;;;;;;;0.43;0.43;;;;;;;5.27;87.46;99444.38;4992781;28;20034;-75
2023/03/06 09:31:15;;;;;;;0.47;0.47;;;;;;;5.32;86.18;99436.50;4992133;28;21008;-74
2023/03/06 09:33:41;;;;;;;0.50;0.50;;;;;;;5.29;87.15;99434.75;4991429;28;20030;-75
2023/03/06 09:36:09;;;;;;;0.40;0.40;;;;;;;5.38;87.84;99441.75;4969915;28;20046;-75
2023/03/06 09:38:34;;;;;;;0.45;0.45;;;;;;;5.44;87.17;99436.47;4992330;28;20031;-75
2023/03/06 09:41:14;;;;;;;0.43;0.43;;;;;;;5.51;86.43;99429.50;4992169;28;20542;-75
2023/03/06 09:43:44;;;;;;;0.40;0.40;;;;;;;5.51;86.48;99432.97;4992344;28;20046;-75
2023/03/06 09:46:21;;;;;;;0.40;0.40;;;;;;;5.66;86.25;99440.78;4992653;28;20118;-75
2023/03/06 09:49:14;;;;;;;0.50;0.50;;;;;;;5.58;87.17;99425.94;4989989;28;20034;-75
2023/03/06 09:51:56;;;;;;;0.43;0.43;;;;;;;5.55;87.18;99429.44;4990067;28;20045;-74
2023/03/06 09:54:42;;;;;;;0.40;0.40;;;;;;;5.80;87.18;99442.47;4992384;28;20038;-75
2023/03/06 09:57:24;;;;;;;0.40;0.40;;;;;;;5.65;86.27;99432.91;4991094;28;20042;-75
2023/03/06 09:59:53;;;;;;;0.40;0.40;;;;;;;5.51;86.05;99432.97;4988117;28;20069;-74
2023/03/06 10:02:25;;;;;;;0.40;0.40;;;;;;;5.63;85.66;99434.66;4991573;28;20404;-75
2023/03/06 10:04:58;;;;;;;0.50;0.50;;;;;;;5.64;85.73;99432.06;4990915;28;20556;-75
2023/03/06 10:07:29;;;;;;;0.40;0.40;;;;;;;5.64;85.67;99424.19;4992131;28;20093;-74
2023/03/06 10:09:58;;;;;;;0.40;0.40;;;;;;;5.68;85.62;99428.53;4987299;28;20026;-74
2023/03/06 10:12:27;;;;;;;0.40;0.40;;;;;;;5.55;87.14;99426.84;4986861;28;20508;-74
2023/03/06 10:15:21;;;;;;;0.30;0.30;;;;;;;5.42;88.22;99423.41;4987011;28;20058;-74
2023/03/06 10:17:46;;;;;;;0.40;0.40;;;;;;;5.21;88.02;99424.34;4991749;28;20089;-75
2023/03/06 10:20:16;;;;;;;0.40;0.40;;;;;;;5.22;87.88;99423.47;4991755;28;20042;-74
2023/03/06 10:23:22;;;;;;;0.38;0.38;;;;;;;5.25;87.35;99426.06;4971433;28;20510;-75
2023/03/06 10:25:58;;;;;;;0.40;0.40;;;;;;;5.13;86.88;99417.38;4988334;28;20420;-74
2023/03/06 10:28:33;;;;;;;0.50;0.50;;;;;;;5.26;87.43;99419.94;4991985;28;20038;-74
2023/03/06 10:31:04;;;;;;;0.40;0.40;;;;;;;5.36;87.64;99414.69;4991172;28;20042;-75
2023/03/06 10:34:09;;;;;;;0.50;0.50;;;;;;;5.58;86.96;99421.63;4987012;28;20034;-75
2023/03/06 10:36:35;;;;;;;0.40;0.40;;;;;;;5.45;89.15;99426.03;4990078;28;20562;-75
2023/03/06 10:39:08;;;;;;;0.40;0.40;;;;;;;5.42;88.06;99425.13;4989276;28;20038;-75
2023/03/06 10:41:35;;;;;;;0.30;0.30;;;;;;;5.48;87.85;99431.25;4991758;28;20190;-74
2023/03/06 10:44:03;;;;;;;0.40;0.40;;;;;;;5.45;89.02;99418.16;4991901;28;20508;-75
2023/03/06 10:46:34;;;;;;;0.30;0.30;;;;;;;5.62;89.88;99422.47;4991138;28;20496;-74
2023/03/06 10:49:05;;;;;;;0.47;0.47;;;;;;;5.91;88.76;99419.72;4987342;28;20030;-74
2023/03/06 10:51:32;;;;;;;0.40;0.40;;;;;;;6.01;85.67;99421.44;4986873;28;20050;-75
2023/03/06 10:53:58;;;;;;;0.40;0.40;;;;;;;5.80;86.27;99427.63;4969962;28;20042;-74
2023/03/06 10:56:36;;;;;;;0.40;0.40;;;;;;;5.77;88.97;99421.53;4989333;28;20045;-74
2023/03/06 10:59:12;;;;;;;0.40;0.40;;;;;;;5.90;87.91;99418.84;4973672;28;20042;-73
2023/03/06 11:01:49;;;;;;;0.40;0.40;;;;;;;5.84;87.65;99423.22;4985105;28;20100;-74
2023/03/06 11:04:23;;;;;;;0.40;0.40;;;;;;;5.74;89.47;99421.53;4974431;28;20035;-74
2023/03/06 11:07:07;;;;;;;0.40;0.40;;;;;;;5.71;89.35;99420.69;4987744;28;20496;-74
2023/03/06 11:09:34;;;;;;;0.40;0.40;;;;;;;5.75;89.17;99423.28;4991356;28;20050;-74
2023/03/06 11:12:34;;;;;;;0.40;0.40;;;;;;;5.58;92.08;99421.63;4989478;28;20066;-74
2023/03/06 11:15:06;;;;;;;0.40;0.40;;;;;;;5.72;92.23;99417.19;4989878;28;20065;-74
2023/03/06 11:17:34;;;;;;;0.30;0.30;;;;;;;5.75;94.22;99412.81;4984010;28;20500;-74
2023/03/06 11:20:22;;;;;;;0.40;0.40;;;;;;;5.88;91.41;99410.13;4987695;28;20046;-74
2023/03/06 11:23:00;;;;;;;0.32;0.32;;;;;;;5.84;91.79;99410.13;4986877;28;20033;-74
2023/03/06 11:25:32;;;;;;;0.30;0.30;;;;;;;5.84;91.13;99400.56;4989042;28;20037;-74
2023/03/06 11:28:07;;;;;;;0.30;0.30;;;;;;;5.74;90.77;99396.25;4987259;28;20034;-74
2023/03/06 11:30:43;;;;;;;0.40;0.40;;;;;;;5.96;91.94;99389.16;4988998;28;20121;-74
2023/03/06 11:33:34;;;;;;;0.40;0.40;;;;;;;6.05;89.70;99386.50;4991581;28;20436;-74
2023/03/06 11:36:24;;;;;;;0.30;0.30;;;;;;;6.29;86.39;99385.47;4964202;28;20034;-74
2023/03/06 11:38:52;;;;;;;0.40;0.40;;;;;;;6.32;84.97;99380.19;4990822;28;20072;-74